Time;durP1;ratioP1;P1;durP2;ratioP2;P2;SDS_P1;SDS_P2;PMS_P1;PMS_P2;Temp;Humidity;BMP_temperature;BMP_pressure;BME280_temperature;BME280_humidity;BME280_pressure;Samples;Min_cycle;Max_cycle;Signal;HPM_P1;HPM_P2
2023/05/24 02:36:02;;;;;;;17.08;3.33;;;10.70;99.90;;;;;;6279295;22;20019;-91
2023/05/24 02:38:31;;;;;;;10.48;3.30;;;10.70;99.90;;;;;;6252313;22;20004;-92
2023/05/24 02:41:08;;;;;;;12.77;3.17;;;10.70;99.90;;;;;;6252190;22;20003;-91
2023/05/24 02:43:39;;;;;;;12.07;2.92;;;10.70;99.90;;;;;;6252630;22;20126;-90
2023/05/24 02:49:37;;;;;;;13.95;3.30;;;10.60;99.90;;;;;;6278786;22;20018;-90
2023/05/24 03:02:52;;;;;;;10.77;3.00;;;10.50;99.90;;;;;;6281351;22;20109;-89
2023/05/24 03:08:50;;;;;;;12.32;3.58;;;10.40;99.90;;;;;;6281065;22;20018;-89
2023/05/24 03:21:56;;;;;;;10.52;3.22;;;10.30;99.90;;;;;;6285382;22;20004;-89
2023/05/24 03:38:42;;;;;;;15.93;4.45;;;10.20;99.90;;;;;;6280636;22;20014;-89
2023/05/24 05:04:43;;;;;;;22.50;5.63;;;10.30;99.90;;;;;;6326668;22;20164;-89
2023/05/24 05:11:20;;;;;;;16.23;5.07;;;10.30;99.90;;;;;;6296333;22;20025;-90
2023/05/24 05:17:31;;;;;;;21.52;5.38;;;10.40;99.90;;;;;;6282034;22;20003;-88
2023/05/24 05:19:56;;;;;;;17.23;5.78;;;10.40;99.90;;;;;;6229718;22;20003;-89
2023/05/24 05:22:22;;;;;;;24.13;6.93;;;10.50;99.90;;;;;;6254878;22;20031;-89
2023/05/24 05:24:48;;;;;;;22.73;6.20;;;10.50;99.90;;;;;;6228448;22;20035;-88
2023/05/24 05:27:13;;;;;;;16.90;5.80;;;10.50;99.90;;;;;;6229509;22;20008;-88
2023/05/24 05:29:45;;;;;;;20.88;6.32;;;10.60;99.90;;;;;;6255036;22;20000;-89
2023/05/24 05:32:10;;;;;;;24.02;5.85;;;10.60;99.90;;;;;;6231526;22;20008;-89
2023/05/24 05:34:41;;;;;;;24.70;6.15;;;10.60;99.90;;;;;;6229648;22;20031;-88
2023/05/24 05:37:07;;;;;;;20.38;5.50;;;10.70;99.90;;;;;;6257381;22;19999;-88
2023/05/24 05:39:33;;;;;;;20.70;5.50;;;10.70;99.90;;;;;;6252905;22;20004;-88
2023/05/24 05:42:01;;;;;;;19.90;5.45;;;10.80;99.90;;;;;;6252850;22;20000;-88
2023/05/24 05:44:26;;;;;;;19.27;5.75;;;10.80;99.90;;;;;;6228981;22;20007;-89
2023/05/24 05:46:53;;;;;;;24.13;5.63;;;10.80;99.90;;;;;;6280854;22;20003;-89
2023/05/24 05:49:19;;;;;;;21.55;5.72;;;10.90;99.90;;;;;;6280335;22;20003;-89
2023/05/24 05:51:45;;;;;;;18.38;5.05;;;11.00;99.90;;;;;;6227920;22;20371;-89
2023/05/24 05:54:17;;;;;;;25.75;5.97;;;11.00;99.90;;;;;;6253826;22;20441;-88
2023/05/24 05:56:46;;;;;;;18.58;5.20;;;11.10;99.90;;;;;;6251987;22;20054;-90
2023/05/24 05:59:15;;;;;;;19.25;5.57;;;11.10;99.90;;;;;;6252003;22;20004;-89
2023/05/24 06:01:46;;;;;;;19.48;5.25;;;11.10;99.90;;;;;;6251830;22;20019;-89
2023/05/24 06:07:39;;;;;;;20.20;5.80;;;11.20;99.90;;;;;;6248281;23;20019;-90
2023/05/24 06:10:06;;;;;;;22.63;5.78;;;11.20;99.90;;;;;;6222289;23;20089;-90
2023/05/24 06:12:39;;;;;;;22.95;5.82;;;11.20;99.90;;;;;;6221694;23;20004;-91
2023/05/24 06:15:06;;;;;;;13.75;5.00;;;11.30;99.90;;;;;;6249890;23;20046;-90
2023/05/24 06:17:33;;;;;;;22.27;5.53;;;11.30;99.90;;;;;;6221695;23;20007;-88
2023/05/24 06:20:08;;;;;;;16.63;5.10;;;11.30;99.90;;;;;;6222874;23;20004;-88
2023/05/24 06:22:35;;;;;;;18.23;5.85;;;11.40;99.90;;;;;;6221848;23;20008;-88
2023/05/24 06:25:07;;;;;;;24.50;5.85;;;11.40;99.90;;;;;;6222468;23;20035;-88
2023/05/24 06:27:39;;;;;;;22.00;5.28;;;11.40;99.90;;;;;;6222883;23;20004;-88
2023/05/24 06:33:34;;;;;;;19.27;5.53;;;11.50;99.90;;;;;;6247706;23;20045;-89
2023/05/24 06:36:08;;;;;;;18.05;4.60;;;11.60;99.90;;;;;;6198205;23;20083;-89
2023/05/24 06:38:37;;;;;;;17.00;5.25;;;11.70;99.90;;;;;;6229566;23;20003;-90
2023/05/24 06:41:20;;;;;;;16.05;5.20;;;11.70;99.90;;;;;;6259955;23;20006;-90
2023/05/24 06:43:46;;;;;;;20.80;5.22;;;11.70;99.90;;;;;;6184034;23;20022;-89
2023/05/24 06:49:35;;;;;;;17.08;5.05;;;11.80;99.90;;;;;;6262405;23;20003;-90
2023/05/24 06:52:01;;;;;;;19.85;5.30;;;11.80;99.90;;;;;;6233612;23;20411;-90
2023/05/24 06:54:27;;;;;;;18.90;5.78;;;11.80;99.90;;;;;;6233159;23;20010;-89
2023/05/24 06:56:55;;;;;;;21.52;5.82;;;11.90;99.90;;;;;;6234089;23;20003;-89
2023/05/24 06:59:33;;;;;;;24.10;5.53;;;11.90;99.90;;;;;;6193121;23;20028;-88
2023/05/24 07:02:22;;;;;;;19.83;5.32;;;12.00;99.90;;;;;;6193333;23;20322;-88
2023/05/24 07:05:13;;;;;;;;;;;;;;;;;;;;;
2023/05/24 07:08:06;;;;;;;;;;;;;;;;;;;;;
2023/05/24 07:10:43;;;;;;;18.38;4.85;;;12.10;99.90;;;;;;6195379;23;20095;-92
2023/05/24 07:13:12;;;;;;;17.85;4.72;;;12.20;99.90;;;;;;6166839;23;20004;-90
2023/05/24 07:15:49;;;;;;;26.48;5.70;;;12.20;99.90;;;;;;6219821;23;20023;-88
2023/05/24 07:21:04;;;;;;;19.83;5.50;;;12.30;99.90;;;;;;6187647;23;20012;-88
2023/05/24 07:23:39;;;;;;;19.58;5.30;;;12.30;99.90;;;;;;6168630;23;20005;-90
2023/05/24 07:26:05;;;;;;;17.00;5.07;;;12.40;99.90;;;;;;6219099;23;20009;-90
2023/05/24 07:28:36;;;;;;;19.27;5.35;;;12.40;99.90;;;;;;6167997;23;20015;-89
2023/05/24 07:31:05;;;;;;;25.83;5.65;;;12.40;99.90;;;;;;6194889;23;20425;-90
2023/05/24 07:33:31;;;;;;;17.52;4.82;;;12.50;99.90;;;;;;6146486;23;20011;-89
2023/05/24 07:36:09;;;;;;;15.48;4.80;;;12.60;99.90;;;;;;6192046;23;20326;-90
2023/05/24 07:38:35;;;;;;;19.38;4.38;;;12.60;99.90;;;;;;6168590;23;20016;-90
2023/05/24 07:41:10;;;;;;;22.58;4.97;;;12.70;99.90;;;;;;6218414;23;20008;-89
2023/05/24 07:43:36;;;;;;;21.38;5.05;;;12.70;99.90;;;;;;6191862;23;20106;-90
2023/05/24 07:46:02;;;;;;;17.80;4.45;;;12.80;99.90;;;;;;6167490;23;20324;-91
2023/05/24 07:48:28;;;;;;;14.25;4.10;;;12.80;99.90;;;;;;6220605;23;20004;-89
2023/05/24 07:51:02;;;;;;;20.20;5.15;;;12.90;99.90;;;;;;6194845;23;20008;-90
2023/05/24 07:53:30;;;;;;;13.75;4.32;;;13.00;99.90;;;;;;6170916;23;20085;-90
2023/05/24 07:55:56;;;;;;;18.92;4.18;;;13.00;99.90;;;;;;6193640;23;20011;-90
2023/05/24 07:58:24;;;;;;;17.83;4.00;;;13.10;99.90;;;;;;6169830;23;20087;-90
2023/05/24 08:00:53;;;;;;;13.73;3.42;;;13.20;99.90;;;;;;6172821;23;20091;-89
2023/05/24 08:03:19;;;;;;;13.25;4.10;;;13.20;99.90;;;;;;6200717;23;20032;-89
2023/05/24 08:05:48;;;;;;;15.80;4.35;;;13.30;99.90;;;;;;6221180;22;20008;-90
2023/05/24 08:08:14;;;;;;;16.50;3.75;;;13.40;99.90;;;;;;6249372;22;20026;-89
2023/05/24 08:10:43;;;;;;;13.90;3.70;;;13.50;99.90;;;;;;6249783;22;20043;-90
2023/05/24 08:13:11;;;;;;;17.08;3.70;;;13.50;99.90;;;;;;6249607;23;20001;-89
2023/05/24 08:15:37;;;;;;;15.32;3.85;;;13.60;99.90;;;;;;6249073;23;20004;-91
2023/05/24 08:18:06;;;;;;;15.35;3.90;;;13.70;99.90;;;;;;6248537;23;20039;-90
2023/05/24 08:20:35;;;;;;;14.15;3.67;;;13.70;99.90;;;;;;6247687;23;20003;-90
2023/05/24 08:23:01;;;;;;;11.60;3.30;;;13.70;99.90;;;;;;6242963;23;20008;-90
2023/05/24 08:25:30;;;;;;;17.10;4.10;;;13.80;99.90;;;;;;6257165;23;20003;-90
2023/05/24 08:28:01;;;;;;;12.25;4.07;;;13.80;99.90;;;;;;6229551;23;20008;-90
2023/05/24 08:30:30;;;;;;;11.75;3.70;;;13.80;99.90;;;;;;6226926;23;20058;-88
2023/05/24 08:33:31;;;;;;;12.15;3.60;;;13.90;99.90;;;;;;6228844;23;20000;-89
2023/05/24 08:35:57;;;;;;;13.88;3.35;;;13.90;99.90;;;;;;6254220;23;20011;-88
2023/05/24 08:38:23;;;;;;;13.90;3.47;;;13.90;99.90;;;;;;6242059;23;20051;-89
2023/05/24 08:40:52;;;;;;;18.38;3.63;;;13.90;99.90;;;;;;6219507;23;20007;-88
2023/05/24 08:43:20;;;;;;;14.13;3.25;;;13.90;99.90;;;;;;6247827;23;20019;-89
2023/05/24 08:45:56;;;;;;;15.55;3.63;;;13.90;99.90;;;;;;6245851;23;20005;-89
2023/05/24 08:48:26;;;;;;;14.18;3.83;;;14.00;99.90;;;;;;6218266;23;20019;-90
2023/05/24 08:51:00;;;;;;;14.27;4.20;;;14.00;99.90;;;;;;6244625;23;20030;-89
2023/05/24 08:53:26;;;;;;;16.60;3.72;;;14.00;99.90;;;;;;6216926;23;20004;-89
2023/05/24 08:56:04;;;;;;;14.70;4.03;;;14.10;99.90;;;;;;6228632;23;20134;-89
2023/05/24 08:58:56;;;;;;;11.73;2.83;;;14.10;99.90;;;;;;6227355;23;20000;-89
2023/05/24 09:01:46;;;;;;;;;;;;;;;;;;;;;
2023/05/24 09:04:26;;;;;;;;;;;;;;;;;;;;;
2023/05/24 09:07:35;;;;;;;;;;;;;;;;;;;;;
2023/05/24 09:10:56;;;;;;;;;;;;;;;;;;;;;
2023/05/24 09:13:27;;;;;;;13.60;2.90;;;14.40;99.90;;;;;;6229310;23;20008;-89
2023/05/24 09:16:15;;;;;;;12.77;2.95;;;14.50;99.90;;;;;;6199578;23;20365;-89
2023/05/24 09:18:49;;;;;;;14.75;3.47;;;14.50;99.90;;;;;;6222771;23;19996;-89
2023/05/24 09:21:17;;;;;;;10.82;2.90;;;14.50;99.90;;;;;;6222401;23;20084;-89
2023/05/24 09:24:02;;;;;;;10.60;3.03;;;14.50;99.90;;;;;;6222870;23;20021;-90
2023/05/24 09:27:25;;;;;;;;;;;;;;;;;;;;;
2023/05/24 09:30:02;;;;;;;;;;;;;;;;;;;;;
2023/05/24 09:32:33;;;;;;;11.93;3.25;;;14.70;99.90;;;;;;6227850;23;20092;-85
2023/05/24 09:34:59;;;;;;;11.65;2.65;;;14.70;99.90;;;;;;6199002;23;20487;-90
2023/05/24 09:37:28;;;;;;;13.90;3.25;;;14.70;99.90;;;;;;6222890;23;20008;-90
2023/05/24 09:40:01;;;;;;;15.75;3.60;;;14.80;99.90;;;;;;6198298;23;20004;-89
2023/05/24 09:42:45;;;;;;;15.52;3.60;;;14.80;99.90;;;;;;6223261;23;20001;-91
2023/05/24 09:45:11;;;;;;;13.20;3.30;;;14.80;99.90;;;;;;6222845;23;20008;-89
2023/05/24 09:47:47;;;;;;;12.55;3.15;;;14.90;99.90;;;;;;6222741;23;20011;-89
2023/05/24 09:53:33;;;;;;;12.90;2.95;;;14.90;99.90;;;;;;6227948;23;20043;-88
2023/05/24 09:56:07;;;;;;;11.75;3.40;;;15.00;99.90;;;;;;6227660;23;20071;-92
2023/05/24 09:58:47;;;;;;;10.63;3.00;;;15.00;99.90;;;;;;6201153;23;20067;-92
2023/05/24 10:01:25;;;;;;;;;;;;;;;;;;;;;
2023/05/24 10:04:05;;;;;;;9.38;2.85;;;15.10;99.90;;;;;;6250437;23;20020;-93
2023/05/24 10:06:59;;;;;;;;;;;;;;;;;;;;;
2023/05/24 10:09:32;;;;;;;8.18;3.00;;;15.10;99.90;;;;;;6226836;23;20039;-92
2023/05/24 10:12:17;;;;;;;12.73;3.17;;;15.10;99.90;;;;;;6222603;23;20035;-93
2023/05/24 10:14:59;;;;;;;9.23;2.95;;;15.20;99.90;;;;;;6218180;23;20005;-94
2023/05/24 10:17:37;;;;;;;12.57;3.20;;;15.20;99.90;;;;;;6248669;23;20414;-90
2023/05/24 10:20:45;;;;;;;9.57;2.92;;;15.20;99.90;;;;;;6222491;23;20007;-92
2023/05/24 10:23:47;;;;;;;11.98;3.05;;;15.20;99.90;;;;;;6163791;23;20014;-90
2023/05/24 10:30:08;;;;;;;;;;;;;;;;;;;;;
2023/05/24 10:35:28;;;;;;;11.52;2.92;;;15.30;99.90;;;;;;6244684;23;20004;-89
2023/05/24 10:37:54;;;;;;;10.27;2.50;;;15.30;99.90;;;;;;6221586;23;20020;-88
2023/05/24 10:40:28;;;;;;;10.90;3.47;;;15.30;99.90;;;;;;6196615;23;20008;-89
2023/05/24 10:42:54;;;;;;;9.25;2.78;;;15.30;99.90;;;;;;6221655;23;20075;-88
2023/05/24 10:45:40;;;;;;;12.00;2.83;;;15.40;99.90;;;;;;6196532;23;20056;-89
2023/05/24 10:48:15;;;;;;;10.70;2.78;;;15.40;99.90;;;;;;6196837;23;20009;-90
2023/05/24 10:50:46;;;;;;;8.82;2.67;;;15.40;99.90;;;;;;6221566;23;20015;-90
2023/05/24 10:53:21;;;;;;;13.48;2.83;;;15.50;99.90;;;;;;6223916;23;20008;-89
2023/05/24 10:56:09;;;;;;;12.07;3.00;;;15.50;99.90;;;;;;6222066;23;20058;-88
2023/05/24 10:58:54;;;;;;;8.63;3.05;;;15.50;99.90;;;;;;6221138;23;20039;-90
2023/05/24 11:01:30;;;;;;;11.45;2.80;;;15.60;99.90;;;;;;6248695;23;19996;-89
2023/05/24 11:04:19;;;;;;;9.98;3.47;;;15.60;99.90;;;;;;6223517;23;20371;-88
2023/05/24 11:07:20;;;;;;;13.00;3.35;;;15.70;99.90;;;;;;6233926;23;20128;-88
2023/05/24 11:09:51;;;;;;;13.43;2.92;;;15.80;99.90;;;;;;6249568;23;20057;-90
2023/05/24 11:12:21;;;;;;;9.93;2.90;;;15.80;99.90;;;;;;6248966;23;20000;-89
2023/05/24 11:14:49;;;;;;;10.57;2.90;;;15.90;99.90;;;;;;6220896;23;20374;-88
2023/05/24 11:17:17;;;;;;;11.48;2.83;;;16.00;99.90;;;;;;6220277;23;20612;-88
2023/05/24 11:19:59;;;;;;;8.85;2.97;;;16.00;99.90;;;;;;6220570;23;20000;-87
2023/05/24 11:22:28;;;;;;;9.77;2.50;;;16.10;99.90;;;;;;6222015;23;20034;-87
2023/05/24 11:25:01;;;;;;;14.35;3.10;;;16.10;99.90;;;;;;6173144;23;20095;-86
2023/05/24 11:27:27;;;;;;;9.98;3.08;;;16.20;99.90;;;;;;6222836;23;20004;-87
2023/05/24 11:29:54;;;;;;;10.35;2.95;;;16.20;99.90;;;;;;6172460;23;20040;-87
2023/05/24 11:32:22;;;;;;;9.77;2.63;;;16.30;99.90;;;;;;6223327;23;20007;-87
2023/05/24 11:34:48;;;;;;;9.30;2.83;;;16.30;99.90;;;;;;6222237;23;20419;-87
2023/05/24 11:37:14;;;;;;;9.75;2.80;;;16.40;99.90;;;;;;6222512;23;20063;-87
2023/05/24 11:39:41;;;;;;;13.02;3.35;;;16.40;99.90;;;;;;6222291;23;20030;-87
2023/05/24 11:42:07;;;;;;;11.40;3.10;;;16.40;99.90;;;;;;6222716;23;20001;-86
2023/05/24 11:44:39;;;;;;;8.48;2.70;;;16.50;99.90;;;;;;6197836;23;20008;-87
2023/05/24 11:47:09;;;;;;;9.30;2.75;;;16.60;99.90;;;;;;6224756;23;20083;-87
2023/05/24 11:49:35;;;;;;;12.27;3.30;;;16.60;99.90;;;;;;6243344;22;20019;-87
2023/05/24 11:52:08;;;;;;;12.18;2.95;;;16.70;99.90;;;;;;6249706;22;19988;-89
2023/05/24 11:54:42;;;;;;;8.63;2.70;;;16.70;99.90;;;;;;6275237;22;20008;-86
2023/05/24 11:57:31;;;;;;;10.85;2.90;;;16.70;99.90;;;;;;6249613;22;19996;-87
2023/05/24 12:00:03;;;;;;;11.13;3.05;;;16.70;99.90;;;;;;6248411;23;20049;-87
2023/05/24 12:02:32;;;;;;;7.45;2.50;;;16.80;99.90;;;;;;6246959;23;20015;-87
2023/05/24 12:05:17;;;;;;;9.02;2.65;;;16.80;99.90;;;;;;6220079;23;20015;-89
2023/05/24 12:08:14;;;;;;;12.63;3.15;;;16.80;99.90;;;;;;6225254;23;20015;-89
2023/05/24 12:10:54;;;;;;;8.30;2.45;;;16.90;99.90;;;;;;6222769;23;20079;-89
2023/05/24 12:14:11;;;;;;;12.70;2.85;;;16.90;99.90;;;;;;6222771;23;20430;-89
2023/05/24 12:16:37;;;;;;;11.32;2.97;;;17.00;99.90;;;;;;6207045;23;20066;-89
2023/05/24 12:19:12;;;;;;;11.07;3.28;;;17.10;99.90;;;;;;6225669;23;20000;-89
2023/05/24 12:22:13;;;;;;;12.95;3.58;;;17.00;99.90;;;;;;6239080;23;20000;-89
2023/05/24 12:25:25;;;;;;;8.73;2.60;;;17.10;99.90;;;;;;6245385;23;20087;-89
2023/05/24 12:28:22;;;;;;;;;;;;;;;;;;;;;
2023/05/24 12:31:04;;;;;;;;;;;;;;;;;;;;;
2023/05/24 12:36:34;;;;;;;9.10;3.08;;;17.30;99.90;;;;;;6082878;23;20066;-89
2023/05/24 12:39:55;;;;;;;10.95;2.70;;;17.40;99.90;;;;;;6071308;23;20010;-90
2023/05/24 12:42:29;;;;;;;8.52;2.63;;;17.40;99.90;;;;;;6213313;23;20027;-89
2023/05/24 12:45:25;;;;;;;;;;;;;;;;;;;;;
2023/05/24 12:48:07;;;;;;;8.88;2.75;;;17.40;99.90;;;;;;6224509;23;20091;-89
2023/05/24 12:50:56;;;;;;;8.93;2.80;;;17.50;99.90;;;;;;6222226;23;20000;-90
2023/05/24 12:53:42;;;;;;;12.23;3.15;;;17.50;99.90;;;;;;6197834;23;20012;-89
2023/05/24 12:56:30;;;;;;;;;;;;;;;;;;;;;
2023/05/24 12:59:01;;;;;;;9.98;3.10;;;17.60;99.90;;;;;;6224998;23;20103;-89
2023/05/24 13:02:02;;;;;;;10.65;2.78;;;17.60;99.90;;;;;;6197291;23;20004;-89
2023/05/24 13:04:41;;;;;;;9.52;2.67;;;17.70;99.90;;;;;;6202183;23;20116;-90
2023/05/24 13:10:03;;;;;;;12.43;3.20;;;17.70;99.90;;;;;;6225125;23;20004;-89
2023/05/24 13:12:41;;;;;;;10.93;3.25;;;17.70;99.90;;;;;;6221814;23;20004;-88
2023/05/24 13:16:13;;;;;;;;;;;;;;;;;;;;;
2023/05/24 13:39:31;;;;;;;;;;;;;;;;;;;;;
2023/05/24 13:42:10;;;;;;;13.63;3.13;;;18.00;99.90;;;;;;6098946;23;20034;-92
2023/05/24 13:44:57;;;;;;;;;;;;;;;;;;;;;
2023/05/24 13:51:05;;;;;;;8.57;2.65;;;18.00;99.90;;;;;;6230182;23;20019;-92
2023/05/24 13:54:10;;;;;;;;;;;;;;;;;;;;;
2023/05/24 13:57:30;;;;;;;13.02;3.25;;;18.00;99.90;;;;;;6242210;23;20087;-93
2023/05/24 14:00:11;;;;;;;;;;;;;;;;;;;;;
2023/05/24 14:02:42;;;;;;;10.27;2.38;;;18.10;99.90;;;;;;6248921;23;20052;-91
2023/05/24 14:05:30;;;;;;;9.98;2.70;;;18.00;99.90;;;;;;6197480;23;20087;-93
2023/05/24 14:08:09;;;;;;;;;;;;;;;;;;;;;
2023/05/24 14:10:52;;;;;;;6.05;2.70;;;18.10;99.90;;;;;;6248601;23;20092;-93
2023/05/24 14:13:26;;;;;;;7.72;3.25;;;18.10;99.90;;;;;;6221867;23;19996;-92
2023/05/24 14:16:05;;;;;;;7.85;2.75;;;18.10;99.90;;;;;;6224601;23;20004;-93
2023/05/24 14:18:44;;;;;;;10.10;2.33;;;18.10;99.90;;;;;;6221432;23;20007;-93
2023/05/24 14:21:11;;;;;;;7.88;2.47;;;18.10;99.90;;;;;;6223349;23;20018;-91
2023/05/24 14:27:19;;;;;;;11.50;3.42;;;18.10;99.90;;;;;;6248209;23;20023;-92
2023/05/24 14:29:46;;;;;;;10.35;2.88;;;18.10;99.90;;;;;;6223628;23;20004;-89
2023/05/24 14:32:12;;;;;;;7.97;2.90;;;18.10;99.90;;;;;;6252029;23;20453;-89
2023/05/24 14:38:41;;;;;;;10.77;2.75;;;18.10;99.90;;;;;;6255298;23;20036;-95
2023/05/24 14:41:38;;;;;;;7.60;2.33;;;18.00;99.90;;;;;;6198203;23;20445;-91
2023/05/24 14:47:34;;;;;;;11.60;3.20;;;18.10;99.90;;;;;;6097278;23;20029;-91
2023/05/24 14:50:14;;;;;;;12.20;3.53;;;18.00;99.90;;;;;;6108863;23;20039;-93
2023/05/24 14:52:45;;;;;;;8.07;2.70;;;18.00;99.90;;;;;;6236860;23;20407;-90
2023/05/24 14:59:09;;;;;;;11.77;2.95;;;18.00;99.90;;;;;;6251257;23;20008;-94
2023/05/24 15:02:12;;;;;;;;;;;;;;;;;;;;;
2023/05/24 15:04:43;;;;;;;11.15;2.80;;;18.00;99.90;;;;;;6248881;23;20087;-89
2023/05/24 15:07:09;;;;;;;9.55;2.80;;;18.00;99.90;;;;;;6222161;23;20022;-90
2023/05/24 15:09:35;;;;;;;8.50;2.88;;;18.00;99.90;;;;;;6220954;23;20024;-90
2023/05/24 15:12:30;;;;;;;10.85;2.90;;;18.00;99.90;;;;;;6221460;23;20445;-90
2023/05/24 15:15:08;;;;;;;8.80;2.83;;;18.00;99.90;;;;;;6222327;23;20038;-92
2023/05/24 15:17:37;;;;;;;7.15;2.75;;;18.00;99.90;;;;;;6198886;23;20012;-91
2023/05/24 15:20:11;;;;;;;8.80;2.70;;;17.90;99.90;;;;;;6222002;23;20095;-89
2023/05/24 15:22:37;;;;;;;9.95;2.70;;;17.90;99.90;;;;;;6250630;23;19996;-92
2023/05/24 15:31:00;;;;;;;9.93;2.78;;;17.90;99.90;;;;;;6251900;22;20026;-90
2023/05/24 15:37:32;;;;;;;11.02;2.67;;;17.90;99.90;;;;;;6274337;22;19999;-90
2023/05/24 15:39:58;;;;;;;8.38;2.75;;;17.90;99.90;;;;;;6247737;22;19992;-90
2023/05/24 15:42:24;;;;;;;10.15;2.88;;;17.90;99.90;;;;;;6244053;23;20004;-90
2023/05/24 15:44:51;;;;;;;7.90;2.72;;;17.90;99.90;;;;;;6237836;23;20418;-90
2023/05/24 15:47:38;;;;;;;10.90;3.10;;;18.00;99.90;;;;;;6258702;23;20071;-89
2023/05/24 15:50:19;;;;;;;8.55;2.55;;;17.90;99.90;;;;;;6174197;23;20039;-90
2023/05/24 15:52:48;;;;;;;10.38;3.25;;;18.00;99.90;;;;;;6197152;23;20062;-91
2023/05/24 15:55:14;;;;;;;7.78;2.90;;;18.00;99.90;;;;;;6196216;23;20004;-92
2023/05/24 15:57:49;;;;;;;10.13;2.70;;;18.00;99.90;;;;;;6223405;23;20011;-90
2023/05/24 16:00:17;;;;;;;9.40;3.03;;;18.00;99.90;;;;;;6220953;23;20063;-91
2023/05/24 16:05:48;;;;;;;9.27;3.05;;;18.00;99.90;;;;;;6099767;23;20025;-91
2023/05/24 16:08:26;;;;;;;10.10;3.17;;;18.10;99.90;;;;;;6229155;23;19993;-92
2023/05/24 16:11:07;;;;;;;9.43;3.25;;;18.10;99.90;;;;;;6272794;23;20018;-91
2023/05/24 16:13:55;;;;;;;;;;;;;;;;;;;;;
2023/05/24 16:16:40;;;;;;;8.10;3.05;;;18.10;99.90;;;;;;6285766;22;19911;-91
2023/05/24 16:26:40;;;;;;;;;;;;;;;;;;;;;
2023/05/24 16:46:47;;;;;;;10.88;3.03;;;18.00;99.90;;;;;;6046901;23;20026;-93
2023/05/24 17:09:36;;;;;;;;;;;;;;;;;;;;;
2023/05/24 17:12:06;;;;;;;8.18;2.70;;;18.10;99.90;;;;;;6013592;23;20059;-92
2023/05/24 17:18:26;;;;;;;10.45;2.40;;;18.20;99.90;;;;;;6013758;23;20030;-91
2023/05/24 17:30:40;;;;;;;12.27;3.50;;;18.40;99.90;;;;;;5977941;23;20068;-92
2023/05/24 17:37:29;;;;;;;11.68;3.00;;;18.40;99.90;;;;;;5993069;23;20045;-91
2023/05/24 17:53:15;;;;;;;;;;;18.10;99.90;;;;;;6015280;23;20025;-89
2023/05/24 18:29:28;;;;;;;7.95;2.90;;;17.40;99.90;;;;;;6150215;23;20029;-89
2023/05/24 19:42:41;;;;;;;;;;;;;;;;;;;;;
2023/05/24 19:45:20;;;;;;;7.85;2.95;;;16.20;99.90;;;;;;6180728;23;20023;-89
2023/05/24 19:54:48;;;;;;;13.57;3.40;;;16.10;99.90;;;;;;6274466;23;20004;-90
2023/05/24 19:57:14;;;;;;;8.20;3.17;;;16.00;99.90;;;;;;6223332;23;19989;-89
2023/05/24 19:59:43;;;;;;;10.27;3.00;;;16.00;99.90;;;;;;6246923;23;20031;-89
2023/05/24 20:05:38;;;;;;;9.82;3.20;;;15.90;99.90;;;;;;6268046;23;20016;-91
2023/05/24 20:08:27;;;;;;;8.00;2.88;;;15.90;99.90;;;;;;6209891;23;20016;-91
2023/05/24 20:11:04;;;;;;;10.13;3.35;;;15.90;99.90;;;;;;6232477;23;20004;-92
2023/05/24 20:13:44;;;;;;;10.15;3.17;;;15.80;99.90;;;;;;6205899;23;20004;-92
2023/05/24 20:17:01;;;;;;;;;;;;;;;;;;;;;
2023/05/24 20:22:23;;;;;;;8.15;3.30;;;15.70;99.90;;;;;;6185666;23;20011;-91
2023/05/24 20:32:26;;;;;;;10.75;3.22;;;15.60;99.90;;;;;;6252045;23;20007;-91
2023/05/24 20:38:19;;;;;;;12.65;3.22;;;15.50;99.90;;;;;;6250402;23;20003;-92
2023/05/24 20:40:54;;;;;;;10.32;3.90;;;15.40;99.90;;;;;;6175542;23;20008;-89
2023/05/24 20:43:31;;;;;;;11.18;4.53;;;15.40;99.90;;;;;;6128746;23;20093;-90
2023/05/24 20:51:01;;;;;;;8.27;3.50;;;15.30;99.90;;;;;;6252230;23;20127;-90
2023/05/24 20:58:45;;;;;;;11.35;3.67;;;15.20;99.90;;;;;;6254111;23;20011;-91
2023/05/24 21:01:12;;;;;;;11.95;3.60;;;15.10;99.90;;;;;;6252807;23;20001;-92
2023/05/24 21:03:38;;;;;;;7.63;3.13;;;15.00;99.90;;;;;;6201445;23;20099;-92
2023/05/24 21:06:06;;;;;;;9.23;3.92;;;15.00;99.90;;;;;;6226730;23;20019;-90
2023/05/24 23:19:20;;;;;;;6.80;3.47;;;13.60;99.90;;;;;;6249809;23;20085;-88
2023/05/24 23:21:47;;;;;;;11.75;3.22;;;13.60;99.90;;;;;;6224187;23;19996;-90
2023/05/24 23:25:10;;;;;;;12.30;3.90;;;13.60;99.90;;;;;;6223874;23;20083;-89
